• Join FlightAware (Why Join?)
  • Login
  • US Flag 
07:31AM EDT


 

Airport Tracker/Info


-or-


 

Live Flight TrackerFlight Track Log ✈ JZA7927 ✈ 28-May-2013 ✈ KBWI - CYYZ

Flight Track Log - Related Links

Times and Time Zones

All times are in EDT time to prevent confusion due to time zone crossing. See the JZA7927 flight status page for this flight to view local times or setup timezone preferences in your user account.

Time Position Orientation Groundspeed Altitude Reporting Facility
EDT Latitude Longitude Course Direction KTS MPH feet Rate Location/Type
06:12AM 39.2500 -76.7167 North 165 190 2,500  Level Potomac TRACON
06:13AM 39.3000 -76.7167 360° North 180 207 3,700 1,080 Climbing Potomac TRACON
06:13AM 39.3333 -76.7000 21° North 179 206 4,400 1,080 Climbing Potomac TRACON
06:14AM 39.5034 -76.6167 North  Level FlightAware Approximate
06:14AM 39.3833 -76.6833 14° North 178 205 5,600  Level Potomac TRACON
06:15AM 39.5742 -76.6167 North  Level FlightAware Approximate
06:16AM 39.6445 -76.6065 North  Level FlightAware Approximate
06:16AM 39.4653 -76.6739 North 202 232 7,400  Level New York Center
06:17AM 39.7150 -76.6000 North  Level FlightAware Approximate
06:17AM 39.5181 -76.6597 12° North 184 212 8,700  Level New York Center
06:18AM 39.5625 -76.6497 10° North 179 206 9,700 1,020 Climbing New York Center
06:19AM 39.6194 -76.6383 North 179 206 10,800 960 Climbing New York Center
06:20AM 39.6636 -76.6286 10° North 179 206 11,700 600 Climbing New York Center
06:21AM 39.7269 -76.6150 North 194 223 12,000 120 Climbing New York Center
06:22AM 39.7806 -76.6275 350° North 208 239 12,000  Level New York Center
06:23AM 39.8431 -76.6706 332° Northwest 220 253 12,100 780 Climbing New York Center
06:24AM 39.8856 -76.6958 335° Northwest 211 243 13,600 900 Climbing New York Center
06:25AM 39.9381 -76.7300 333° Northwest 188 216 14,000 180 Climbing New York Center
06:26AM 39.9864 -76.7586 336° Northwest 196 226 14,000  Level New York Center
06:27AM 40.0472 -76.7964 335° Northwest 215 247 14,000  Level New York Center
06:28AM 40.0997 -76.8281 335° Northwest 220 253 14,000  Level New York Center
06:29AM 40.1622 -76.8689 333° Northwest 225 259 14,000  Level New York Center
06:30AM 40.2189 -76.9036 335° Northwest 225 259 14,000  Level New York Center
06:31AM 40.2794 -76.9389 336° Northwest 230 265 14,000  Level New York Center
06:32AM 40.3319 -76.9708 335° Northwest 237 273 14,000  Level New York Center
06:33AM 40.3925 -77.0089 334° Northwest 231 266 14,000  Level New York Center
06:34AM 40.4469 -77.0439 334° Northwest 231 266 14,000  Level New York Center
06:35AM 40.5097 -77.0825 335° Northwest 231 266 14,000  Level New York Center
06:36AM 40.5600 -77.1144 334° Northwest 231 266 14,000  Level New York Center
06:37AM 40.6247 -77.1531 336° Northwest 231 266 14,000  Level New York Center
06:38AM 40.6831 -77.1914 334° Northwest 231 266 14,000  Level New York Center
06:39AM 40.7414 -77.2272 335° Northwest 231 266 14,000  Level New York Center
06:40AM 40.8000 -77.2656 334° Northwest 231 266 14,000  Level New York Center
06:41AM 40.8606 -77.3014 336° Northwest 231 266 14,000  Level New York Center
06:42AM 40.9186 -77.3400 333° Northwest 231 266 14,000  Level New York Center
06:43AM 40.9731 -77.3728 336° Northwest 231 266 14,000  Level New York Center
06:44AM 41.0378 -77.4119 335° Northwest 231 266 14,000  Level New York Center
06:45AM 41.0981 -77.4508 334° Northwest 231 266 14,000  Level New York Center
06:46AM 41.1561 -77.4897 333° Northwest 231 266 14,000  Level New York Center
06:47AM 41.2167 -77.5261 336° Northwest 231 266 14,000  Level New York Center
06:49AM 41.3461 -77.6097 334° Northwest 231 266 14,000  Level Cleveland Center
06:50AM 41.4056 -77.6486 334° Northwest 231 266 14,000  Level Cleveland Center
06:51AM 41.4669 -77.6844 336° Northwest 236 272 14,000  Level Cleveland Center
06:52AM 41.5264 -77.7261 332° Northwest 241 277 14,000  Level Cleveland Center
06:53AM 41.5878 -77.7653 334° Northwest 241 277 14,000  Level Cleveland Center
06:54AM 41.6492 -77.8042 335° Northwest 241 277 14,000  Level Cleveland Center
06:55AM 41.7083 -77.8406 335° Northwest 241 277 14,000  Level Cleveland Center
06:56AM 41.7697 -77.8825 333° Northwest 246 283 14,000  Level Cleveland Center
06:57AM 41.8311 -77.9217 335° Northwest 246 283 14,000  Level Cleveland Center
06:58AM 41.8883 -77.9611 333° Northwest 246 283 14,000 -60 Level Cleveland Center
06:59AM 41.9539 -78.0006 336° Northwest 246 283 13,900 -60 Descending Cleveland Center
07:00AM 42.0153 -78.0400 334° Northwest 246 283 13,900  Level Cleveland Center
07:01AM 42.0744 -78.0822 332° Northwest 246 283 13,900  Level Cleveland Center
07:02AM 42.1381 -78.1217 335° Northwest 246 283 13,900  Level Cleveland Center
07:03AM 42.1972 -78.1617 333° Northwest 246 283 13,900  Level Cleveland Center
07:04AM 42.2606 -78.2011 335° Northwest 246 283 13,900  Level Cleveland Center
07:05AM 42.3197 -78.2439 332° Northwest 246 283 14,000  Climbing Cleveland Center
07:06AM 42.3831 -78.2839 335° Northwest 246 283 14,000  Level Cleveland Center
07:07AM 42.4444 -78.3236 334° Northwest 246 283 14,000  Level Cleveland Center
07:08AM 42.5056 -78.3639 334° Northwest 246 283 14,000  Level Cleveland Center
07:09AM 42.5689 -78.4039 335° Northwest 246 283 14,000  Level Cleveland Center
07:10AM 42.6300 -78.4469 333° Northwest 246 283 14,000  Level Cleveland Center
07:11AM 42.6914 -78.4872 334° Northwest 246 283 14,000  Level Cleveland Center
07:12AM 42.7525 -78.5303 333° Northwest 246 283 14,000  Level Cleveland Center
07:13AM 42.8158 -78.5681 336° Northwest 246 283 14,000  Level Cleveland Center
07:14AM 42.8789 -78.6114 333° Northwest 246 283 14,000  Level Cleveland Center
07:15AM 42.9361 -78.6578 329° Northwest 246 283 14,000  Level Cleveland Center
07:16AM 42.9769 -78.7331 307° West 240 276 14,000  Level Cleveland Center